createdAt,value
2023-03-19T00:01:08.294Z,10.37
2023-03-19T00:06:00.362Z,11.54
2023-03-19T00:10:52.528Z,11.97
2023-03-19T00:15:44.281Z,11.33
2023-03-19T00:20:36.329Z,11.94
2023-03-19T00:25:28.098Z,11.15
2023-03-19T00:30:20.190Z,11.71
2023-03-19T00:35:12.118Z,9.29
2023-03-19T00:40:05.299Z,10.83
2023-03-19T00:44:58.718Z,10.96
2023-03-19T00:49:50.741Z,9.15
2023-03-19T00:54:43.000Z,8.82
2023-03-19T00:59:34.735Z,9.59
2023-03-19T01:04:28.113Z,10.99
2023-03-19T01:09:20.241Z,8.66
2023-03-19T01:14:12.578Z,8.53
2023-03-19T01:19:04.269Z,10.22
2023-03-19T01:23:57.116Z,9.31
2023-03-19T01:28:50.127Z,9.59
2023-03-19T01:33:44.180Z,9.93
2023-03-19T01:38:42.682Z,8.35
2023-03-19T01:43:39.606Z,10.09
2023-03-19T01:49:02.940Z,10.18
2023-03-19T01:54:00.514Z,9.92
2023-03-19T01:59:21.667Z,9.11
2023-03-19T02:04:34.533Z,10.53
2023-03-19T02:09:27.824Z,9.73
2023-03-19T02:14:19.620Z,8.79
2023-03-19T02:19:16.969Z,8.75
2023-03-19T02:24:12.453Z,10.64
2023-03-19T02:29:27.073Z,9.96
2023-03-19T02:34:21.728Z,10.67
2023-03-19T02:39:23.420Z,10.57
2023-03-19T02:44:17.361Z,9.72
2023-03-19T02:49:09.793Z,10.06
2023-03-19T02:54:01.560Z,10.31
2023-03-19T02:58:53.437Z,10.73
2023-03-19T03:03:45.307Z,10.18
2023-03-19T03:08:37.355Z,10.83
2023-03-19T03:13:29.588Z,9.74
2023-03-19T03:18:21.346Z,10.01
2023-03-19T03:23:13.098Z,8.30
2023-03-19T03:28:04.898Z,10.52
2023-03-19T03:32:56.684Z,9.12
2023-03-19T03:37:51.867Z,9.63
2023-03-19T03:42:44.156Z,10.35
2023-03-19T03:47:37.267Z,10.84
2023-03-19T03:52:31.509Z,10.77
2023-03-19T03:57:24.616Z,9.36
2023-03-19T04:02:16.878Z,10.49
2023-03-19T04:07:08.945Z,9.10
2023-03-19T04:12:05.783Z,8.57
2023-03-19T04:16:57.622Z,8.99
2023-03-19T04:21:49.562Z,8.42
2023-03-19T04:26:41.684Z,10.40
2023-03-19T04:31:33.751Z,8.91
2023-03-19T04:36:25.989Z,9.39
2023-03-19T04:41:17.777Z,10.49
2023-03-19T04:46:23.655Z,10.53
2023-03-19T04:51:16.839Z,9.40
2023-03-19T04:56:09.259Z,8.84
2023-03-19T05:01:01.667Z,10.73
2023-03-19T05:06:20.205Z,10.68
2023-03-19T05:11:12.127Z,9.53
2023-03-19T05:16:20.765Z,10.12
2023-03-19T05:21:13.730Z,9.38
2023-03-19T05:26:06.797Z,10.63
2023-03-19T05:31:17.039Z,10.47
2023-03-19T05:36:13.127Z,8.61
2023-03-19T05:41:14.646Z,10.63
2023-03-19T05:46:16.603Z,10.49
2023-03-19T05:51:09.545Z,9.97
2023-03-19T05:56:06.095Z,9.62
2023-03-19T06:01:07.176Z,9.39
2023-03-19T06:05:58.987Z,8.91
2023-03-19T06:11:04.672Z,9.05
2023-03-19T06:15:58.366Z,10.45
2023-03-19T06:20:57.632Z,10.50
2023-03-19T06:25:49.395Z,10.81
2023-03-19T06:30:42.326Z,10.83
2023-03-19T06:35:57.139Z,9.23
2023-03-19T06:40:48.950Z,11.17
2023-03-19T06:45:40.781Z,10.93
2023-03-19T06:50:32.887Z,11.19
2023-03-19T06:55:24.750Z,10.65
2023-03-19T07:00:18.260Z,11.27
2023-03-19T07:05:09.984Z,11.26
2023-03-19T07:10:01.918Z,7.53
2023-03-19T07:14:57.922Z,9.96
2023-03-19T07:19:49.886Z,9.66
2023-03-19T07:24:41.931Z,11.06
2023-03-19T07:29:33.734Z,9.28
2023-03-19T07:34:25.624Z,11.62
2023-03-19T07:39:17.346Z,11.35
2023-03-19T07:44:09.044Z,11.29
2023-03-19T07:49:00.790Z,12.44
2023-03-19T07:53:52.543Z,12.15
2023-03-19T07:58:45.485Z,11.71
2023-03-19T08:03:37.276Z,12.78
2023-03-19T08:08:29.002Z,13.23
2023-03-19T08:13:20.759Z,12.86
2023-03-19T08:18:13.620Z,11.70
2023-03-19T08:23:06.286Z,15.47
2023-03-19T08:27:59.291Z,16.72
2023-03-19T08:32:51.362Z,16.07
2023-03-19T08:37:43.159Z,15.41
2023-03-19T08:42:34.965Z,15.87
2023-03-19T08:47:27.142Z,16.68
2023-03-19T08:52:20.038Z,15.28
2023-03-19T08:57:11.821Z,17.13
2023-03-19T09:02:03.678Z,17.01
2023-03-19T09:06:55.908Z,16.07
2023-03-19T09:11:48.765Z,17.28
2023-03-19T09:16:40.671Z,18.83
2023-03-19T09:21:32.406Z,18.30
2023-03-19T09:26:24.045Z,18.49
2023-03-19T09:31:15.966Z,18.05
2023-03-19T09:36:08.194Z,17.24
2023-03-19T09:41:01.603Z,17.48
2023-03-19T09:45:53.513Z,15.66
2023-03-19T09:50:47.499Z,16.71
2023-03-19T09:55:42.146Z,16.75
2023-03-19T10:00:37.102Z,16.56
2023-03-19T10:06:06.272Z,17.00
2023-03-19T10:11:35.462Z,17.28
2023-03-19T10:16:29.068Z,16.37
2023-03-19T10:21:31.936Z,15.43
2023-03-19T10:26:30.060Z,15.40
2023-03-19T10:31:40.723Z,16.28
2023-03-19T10:36:36.232Z,14.90
2023-03-19T10:41:55.575Z,16.64
2023-03-19T10:46:47.343Z,16.71
2023-03-19T10:51:40.090Z,15.12
2023-03-19T10:56:34.379Z,15.71
2023-03-19T11:01:35.225Z,15.50
2023-03-19T11:06:34.088Z,16.11
2023-03-19T11:11:42.473Z,16.56
2023-03-19T11:16:56.526Z,15.17
2023-03-19T11:22:09.434Z,16.29
2023-03-19T11:27:02.252Z,16.73
2023-03-19T11:32:21.662Z,17.19
2023-03-19T11:37:42.025Z,17.99
2023-03-19T11:42:51.027Z,17.06
2023-03-19T11:48:07.152Z,16.72
2023-03-19T11:53:17.523Z,17.11
2023-03-19T11:58:35.569Z,17.08
2023-03-19T12:03:37.137Z,17.01
2023-03-19T12:08:31.990Z,16.95
2023-03-19T12:13:55.893Z,18.26
2023-03-19T12:18:47.540Z,17.12
2023-03-19T12:24:04.454Z,18.02
2023-03-19T12:29:16.894Z,16.69
2023-03-19T12:34:22.053Z,17.87
2023-03-19T12:39:21.201Z,17.44
2023-03-19T12:44:26.758Z,17.70
2023-03-19T12:49:30.428Z,16.69
2023-03-19T12:54:34.686Z,18.52
2023-03-19T12:59:51.588Z,17.73
2023-03-19T13:05:22.941Z,16.88
2023-03-19T13:10:24.906Z,16.56
2023-03-19T13:15:27.956Z,16.61
2023-03-19T13:20:24.251Z,14.38
2023-03-19T13:25:18.472Z,15.53
2023-03-19T13:30:10.331Z,16.87
2023-03-19T13:35:40.936Z,17.07
2023-03-19T13:40:47.893Z,16.81
2023-03-19T13:45:39.655Z,16.13
2023-03-19T13:50:52.268Z,16.40
2023-03-19T13:55:57.620Z,15.53
2023-03-19T14:00:58.727Z,16.79
2023-03-19T14:05:53.501Z,17.25
2023-03-19T14:10:54.172Z,16.73
2023-03-19T14:15:51.658Z,16.35
2023-03-19T14:21:00.775Z,16.46
2023-03-19T14:26:17.316Z,16.24
2023-03-19T14:31:26.883Z,14.74
2023-03-19T14:36:21.955Z,15.58
2023-03-19T14:41:19.708Z,15.17
2023-03-19T14:46:23.704Z,13.96
2023-03-19T14:51:53.265Z,14.81
2023-03-19T14:56:48.034Z,13.70
2023-03-19T15:01:41.569Z,13.46
2023-03-19T15:06:37.916Z,14.90
2023-03-19T15:12:03.745Z,14.99
2023-03-19T15:17:27.340Z,15.03
2023-03-19T15:22:26.308Z,14.94
2023-03-19T15:27:21.022Z,13.89
2023-03-19T15:32:15.671Z,15.65
2023-03-19T15:37:13.856Z,15.40
2023-03-19T15:42:05.866Z,15.49
2023-03-19T15:46:58.496Z,14.46
2023-03-19T15:51:53.575Z,14.65
2023-03-19T15:56:46.319Z,11.59
2023-03-19T16:01:38.526Z,13.54
2023-03-19T16:06:32.811Z,11.98
2023-03-19T16:11:35.483Z,14.46
2023-03-19T16:16:32.741Z,17.36
2023-03-19T16:21:38.029Z,13.24
2023-03-19T16:26:31.269Z,11.06
2023-03-19T16:31:32.214Z,11.28
2023-03-19T16:36:28.824Z,12.23
2023-03-19T16:41:32.504Z,11.56
2023-03-19T16:46:26.142Z,12.41
2023-03-19T16:51:21.346Z,11.84
2023-03-19T16:56:15.112Z,10.30
2023-03-19T17:01:16.684Z,11.28
2023-03-19T17:06:13.210Z,10.99
2023-03-19T17:11:05.652Z,12.80
2023-03-19T17:15:59.898Z,11.02
2023-03-19T17:21:21.486Z,11.83
2023-03-19T17:26:19.584Z,11.86
2023-03-19T17:31:24.313Z,10.16
2023-03-19T17:36:16.130Z,10.89
2023-03-19T17:41:19.906Z,12.08
2023-03-19T17:46:36.078Z,11.43
2023-03-19T17:51:28.509Z,11.84
2023-03-19T17:56:25.383Z,11.07
2023-03-19T18:01:21.377Z,10.51
2023-03-19T18:06:19.306Z,12.65
2023-03-19T18:11:11.296Z,11.15
2023-03-19T18:16:05.832Z,12.50
2023-03-19T18:20:59.529Z,11.66
2023-03-19T18:25:52.278Z,10.81
2023-03-19T18:30:45.463Z,10.33
2023-03-19T18:35:40.324Z,10.29
2023-03-19T18:40:33.129Z,10.71
2023-03-19T18:45:30.361Z,11.01
2023-03-19T18:50:29.281Z,10.04
2023-03-19T18:55:26.762Z,12.32
2023-03-19T19:00:23.110Z,9.77
2023-03-19T19:05:20.244Z,10.75
2023-03-19T19:10:12.713Z,10.09
2023-03-19T19:15:05.390Z,9.30
2023-03-19T19:19:57.060Z,11.61
2023-03-19T19:24:48.901Z,11.25
2023-03-19T19:29:40.652Z,10.81
2023-03-19T19:34:32.276Z,10.27
2023-03-19T19:39:23.969Z,10.01
2023-03-19T19:44:20.311Z,9.74
2023-03-19T19:49:15.477Z,12.36
2023-03-19T19:54:07.225Z,11.96
2023-03-19T19:58:59.828Z,11.88
2023-03-19T20:03:52.202Z,11.28
2023-03-19T20:08:44.502Z,12.02
2023-03-19T20:13:37.832Z,9.79
2023-03-19T20:18:33.414Z,10.63
2023-03-19T20:23:26.277Z,11.35
2023-03-19T20:33:46.109Z,11.78
2023-03-19T20:38:37.781Z,9.61
2023-03-19T20:43:32.848Z,12.09
2023-03-19T20:48:26.316Z,10.61
2023-03-19T20:53:18.329Z,11.11
2023-03-19T20:58:36.867Z,11.00
2023-03-19T21:03:31.530Z,11.91
2023-03-19T21:08:32.566Z,8.98
2023-03-19T21:13:24.290Z,9.98
2023-03-19T22:10:52.978Z,11.41
